PDT,Max TemperatureF,Mean TemperatureF,Min TemperatureF,Max Dew PointF,MeanDew PointF,Min DewpointF,Max Humidity, Mean Humidity, Min Humidity, Max Sea Level PressureIn, Mean Sea Level PressureIn, Min Sea Level PressureIn, Max VisibilityMiles, Mean VisibilityMiles, Min VisibilityMiles, Max Wind SpeedMPH, Mean Wind SpeedMPH, Max Gust SpeedMPH,PrecipitationIn, CloudCover, Events, WindDirDegrees
2013-7-1,102,90,78,63,57,50,51,35,18,29.90,29.87,29.82,10,10,10,10,6,,0.00,0,,163
2013-7-2,102,90,78,63,60,52,57,37,24,29.94,29.90,29.84,10,10,10,13,5,16,0.00,0,,157
2013-7-3,102,88,73,64,62,54,69,43,26,29.94,29.87,29.81,10,10,10,9,4,,0.00,0,,207
2013-7-4,104,90,75,68,61,50,73,42,17,29.81,29.76,29.70,10,10,10,13,3,18,0.00,0,,226
2013-7-5,89,79,69,59,49,43,50,35,22,29.77,29.73,29.69,10,10,10,17,9,26,0.00,0,,163
2013-7-6,89,76,62,55,53,48,72,45,24,29.81,29.77,29.74,10,10,10,9,4,,0.00,0,,189
2013-7-7,91,75,59,54,49,36,77,38,17,29.87,29.83,29.79,10,10,10,10,4,,0.00,0,,195
2013-7-8,91,78,66,52,47,41,53,34,17,30.00,29.93,29.86,10,10,10,10,6,,0.00,0,,169
2013-7-9,98,83,68,48,43,37,49,27,13,30.07,30.02,29.98,10,10,10,10,5,,0.00,0,,141
2013-7-10,96,86,75,52,42,37,34,23,15,29.99,29.95,29.90,10,10,10,13,8,,0.00,0,,161
2013-7-11,89,78,66,46,39,32,46,25,15,29.93,29.91,29.87,10,10,9,14,8,16,0.00,0,,159
2013-7-12,87,74,62,48,42,36,42,30,16,29.94,29.91,29.89,10,10,10,12,7,,0.00,0,,160
2013-7-13,91,78,64,48,43,36,43,30,16,29.98,29.95,29.91,10,10,9,12,6,,0.00,0,,145
2013-7-14,93,78,64,52,46,43,52,31,18,29.99,29.95,29.90,10,10,9,12,6,,0.00,0,,193
2013-7-15,87,78,66,54,46,37,46,34,20,29.91,29.86,29.82,10,10,10,9,5,,0.00,0,,169
2013-7-16,82,71,60,52,46,37,64,43,26,30.02,29.93,29.84,10,10,8,10,6,,0.00,0,,175
2013-7-17,87,70,53,54,47,41,72,44,21,30.09,30.05,30.01,10,10,10,8,4,,0.00,0,,237
2013-7-18,93,78,62,52,44,32,55,32,14,30.06,30.01,29.95,10,10,10,10,4,,0.00,0,,255
2013-7-19,96,82,68,54,48,45,47,32,18,29.96,29.90,29.83,10,10,10,9,6,,0.00,0,,201
2013-7-20,98,86,73,57,53,48,47,34,19,29.86,29.81,29.75,10,10,10,9,5,,0.00,0,,189
2013-7-21,95,82,68,57,52,43,64,35,21,29.90,29.81,29.78,10,10,10,12,7,16,0.00,0,,171
2013-7-22,91,80,68,50,44,36,46,29,17,30.00,29.95,29.90,10,10,10,12,6,17,0.00,0,,167
2013-7-23,91,80,69,48,44,37,41,28,20,30.02,29.99,29.90,10,10,10,12,6,,0.00,0,,171
2013-7-24,93,81,69,57,53,43,53,37,26,30.00,29.96,29.92,10,10,10,10,5,,0.00,0,,177
2013-7-25,96,86,75,61,57,55,53,39,25,30.00,29.96,29.93,10,10,10,9,6,,0.00,0,,169
2013-7-26,96,84,73,59,56,54,53,38,23,30.08,30.03,29.99,10,10,10,9,6,,0.00,0,,173
2013-7-27,93,80,66,57,54,46,68,39,24,30.01,29.94,29.86,10,10,9,9,6,,0.00,0,,176
2013-7-28,91,80,69,55,51,39,56,38,27,29.88,29.83,29.79,10,10,10,9,5,,0.00,0,,172
2013-7-29,84,72,60,54,49,39,64,45,26,30.00,29.92,29.82,10,10,8,9,5,,0.00,0,,179
2013-7-30,89,73,57,52,47,43,64,40,21,30.10,30.05,30.00,10,9,5,8,4,,0.00,0,,195
2013-7-31,89,76,64,54,47,37,56,37,17,30.06,30.02,29.98,10,10,10,10,6,,0.00,0,,166